Time;durP1;ratioP1;P1;durP2;ratioP2;P2;SDS_P1;SDS_P2;PMS_P1;PMS_P2;Temp;Humidity;BMP_temperature;BMP_pressure;BME280_temperature;BME280_humidity;BME280_pressure;Samples;Min_cycle;Max_cycle;Signal;HPM_P1;HPM_P2
2022/08/11 00:01:26;;;;;;;5.97;1.20;;;;;;;16.92;100.00;100304.09;5172233;27;20053;-53
2022/08/11 00:03:55;;;;;;;1.52;1.33;;;;;;;16.97;100.00;100319.59;5173450;27;20212;-55
2022/08/11 00:06:27;;;;;;;2.13;1.52;;;;;;;16.96;100.00;100320.75;5175921;27;20501;-57
2022/08/11 00:08:54;;;;;;;3.80;1.73;;;;;;;16.89;100.00;100324.25;5175783;27;20142;-52
2022/08/11 00:11:22;;;;;;;4.63;2.15;;;;;;;16.76;100.00;100339.53;5175921;27;20046;-56
2022/08/11 00:13:49;;;;;;;11.13;1.77;;;;;;;16.79;100.00;100342.34;5175752;27;20127;-55
2022/08/11 00:16:19;;;;;;;4.88;1.80;;;;;;;16.67;100.00;100348.13;5175871;27;20050;-56
2022/08/11 00:18:50;;;;;;;1.90;1.58;;;;;;;16.70;100.00;100352.91;5175799;27;20047;-56
2022/08/11 00:21:20;;;;;;;2.40;1.45;;;;;;;16.57;100.00;100359.88;5175941;27;20485;-54
2022/08/11 00:23:53;;;;;;;2.22;1.95;;;;;;;16.69;100.00;100351.28;5175482;27;20505;-57
2022/08/11 00:26:21;;;;;;;7.40;1.80;;;;;;;16.71;100.00;100355.28;5175745;27;20420;-56
2022/08/11 00:28:50;;;;;;;1.90;1.30;;;;;;;16.68;100.00;100358.00;5175689;27;20425;-54
2022/08/11 00:31:23;;;;;;;3.40;1.45;;;;;;;16.68;100.00;100350.50;5175355;27;20047;-56
2022/08/11 00:33:52;;;;;;;1.58;1.20;;;;;;;16.52;100.00;100358.22;5175509;27;20080;-55
2022/08/11 00:36:22;;;;;;;1.63;1.52;;;;;;;16.54;100.00;100377.22;5175507;27;20056;-57
2022/08/11 00:38:51;;;;;;;1.83;1.60;;;;;;;16.46;100.00;100371.59;5175402;27;20139;-57
2022/08/11 00:41:28;;;;;;;3.67;2.03;;;;;;;16.54;100.00;100371.69;5175249;27;20054;-54
2022/08/11 00:44:11;;;;;;;4.95;1.83;;;;;;;16.49;100.00;100381.09;5175544;27;20080;-56
2022/08/11 00:46:48;;;;;;;2.28;1.67;;;;;;;16.31;100.00;100393.91;5175267;27;20149;-57
2022/08/11 00:49:29;;;;;;;2.35;1.35;;;;;;;16.46;100.00;100399.28;5175051;27;20110;-56
2022/08/11 00:52:13;;;;;;;1.92;1.55;;;;;;;16.42;100.00;100403.94;5175320;27;20145;-54
2022/08/11 00:55:06;;;;;;;6.50;1.63;;;;;;;16.41;100.00;100405.13;5175131;27;20088;-56
2022/08/11 00:58:10;;;;;;;1.65;1.50;;;;;;;16.39;100.00;100399.19;5175148;27;20088;-57
2022/08/11 01:00:57;;;;;;;1.83;1.67;;;;;;;16.16;100.00;100402.00;5175044;27;20046;-56
2022/08/11 01:03:47;;;;;;;2.08;1.45;;;;;;;16.13;100.00;100418.56;5174960;27;20548;-56
2022/08/11 01:06:38;;;;;;;1.63;1.38;;;;;;;16.37;100.00;100420.09;5174865;27;20058;-55
2022/08/11 01:09:20;;;;;;;2.30;1.63;;;;;;;16.30;100.00;100414.47;5174764;27;20198;-56
2022/08/11 01:12:10;;;;;;;6.47;2.13;;;;;;;16.34;100.00;100416.09;5175219;27;20054;-55
2022/08/11 01:15:10;;;;;;;5.53;1.80;;;;;;;16.20;100.00;100404.84;5174593;27;20523;-54
2022/08/11 01:18:11;;;;;;;7.05;1.60;;;;;;;16.22;100.00;100410.78;5174988;27;20042;-53
2022/08/11 01:21:08;;;;;;;1.55;1.25;;;;;;;16.19;100.00;100433.66;5174751;27;20056;-56
2022/08/11 01:24:29;;;;;;;2.60;1.45;;;;;;;16.16;100.00;100431.63;5174736;27;20050;-53
2022/08/11 01:27:35;;;;;;;5.05;1.25;;;;;;;16.16;100.00;100431.63;5174600;27;20135;-52
2022/08/11 01:30:47;;;;;;;3.75;1.60;;;;;;;16.20;100.00;100430.53;5174464;27;20061;-56
2022/08/11 01:34:00;;;;;;;1.98;1.30;;;;;;;15.90;100.00;100441.50;5174433;27;20061;-56
2022/08/11 01:36:59;;;;;;;3.67;1.30;;;;;;;16.05;100.00;100444.50;5174681;27;20169;-54
2022/08/11 01:40:08;;;;;;;2.50;1.70;;;;;;;15.94;100.00;100450.66;5174889;27;20157;-57
2022/08/11 01:45:59;;;;;;;1.67;1.30;;;;;;;16.07;100.00;100442.19;5174387;27;20061;-56
2022/08/11 01:48:37;;;;;;;2.33;1.55;;;;;;;16.05;100.00;100442.53;5174463;27;20049;-55
2022/08/11 01:51:14;;;;;;;4.47;1.50;;;;;;;16.02;100.00;100443.28;5174412;27;20057;-54
2022/08/11 01:53:51;;;;;;;2.15;1.40;;;;;;;15.91;100.00;100450.59;5174404;27;20529;-55
2022/08/11 01:56:32;;;;;;;3.63;1.20;;;;;;;16.02;100.00;100442.47;5174156;27;20050;-56
2022/08/11 01:59:11;;;;;;;2.30;1.70;;;;;;;15.90;100.00;100446.25;5174154;27;20046;-53
2022/08/11 02:01:50;;;;;;;5.75;1.70;;;;;;;15.98;100.00;100439.66;5173955;27;20442;-55
2022/08/11 02:04:25;;;;;;;2.33;1.33;;;;;;;16.01;100.00;100444.44;5174129;27;20369;-55
2022/08/11 02:07:01;;;;;;;2.63;1.30;;;;;;;16.02;100.00;100439.72;5174063;27;20125;-57
2022/08/11 02:09:59;;;;;;;2.95;1.60;;;;;;;15.96;100.00;100434.50;5174088;27;20057;-56
2022/08/11 02:12:43;;;;;;;4.47;1.40;;;;;;;15.92;100.00;100433.63;5174041;27;20414;-56
2022/08/11 02:15:15;;;;;;;2.67;1.63;;;;;;;15.87;100.00;100430.41;5173829;27;20042;-55
2022/08/11 02:17:53;;;;;;;1.80;1.70;;;;;;;15.97;100.00;100433.31;5173993;27;20053;-56
2022/08/11 02:23:40;;;;;;;1.60;1.48;;;;;;;15.92;100.00;100441.13;5109495;28;20043;-56
2022/08/11 02:26:18;;;;;;;2.70;1.40;;;;;;;15.93;100.00;100440.78;5167145;27;20133;-56
2022/08/11 02:29:09;;;;;;;2.53;1.42;;;;;;;15.91;100.00;100445.88;5173660;27;20094;-56
2022/08/11 02:34:47;;;;;;;1.92;1.58;;;;;;;15.82;100.00;100441.75;5173559;27;20046;-55
2022/08/11 02:37:23;;;;;;;5.60;2.00;;;;;;;15.78;100.00;100449.97;5173411;27;20602;-56
2022/08/11 02:40:03;;;;;;;3.05;1.95;;;;;;;15.77;100.00;100446.44;5173704;27;20046;-56
2022/08/11 02:42:34;;;;;;;1.63;1.42;;;;;;;15.64;100.00;100444.97;5173425;27;20133;-56
2022/08/11 02:45:15;;;;;;;5.22;1.52;;;;;;;15.74;100.00;100438.06;5173225;27;20103;-54
2022/08/11 02:49:52;;;;;;;1.58;1.25;;;;;;;15.65;100.00;100443.00;5173426;27;20083;-56
2022/08/11 02:50:41;;;;;;;2.72;1.50;;;;;;;15.74;100.00;100441.63;5172964;27;20054;-55
2022/08/11 02:53:16;;;;;;;5.35;1.55;;;;;;;15.47;100.00;100439.94;5173173;27;20474;-56
2022/08/11 02:55:57;;;;;;;4.13;1.90;;;;;;;15.65;100.00;100431.94;5173529;27;20445;-56
2022/08/11 02:58:35;;;;;;;3.88;1.70;;;;;;;15.71;100.00;100430.50;5173127;27;20050;-55
2022/08/11 03:01:10;;;;;;;6.93;1.63;;;;;;;15.72;100.00;100429.34;5173192;27;20088;-53
2022/08/11 03:03:50;;;;;;;2.60;1.48;;;;;;;15.65;100.00;100429.19;5173307;27;20053;-53
2022/08/11 03:06:29;;;;;;;3.35;1.85;;;;;;;15.65;100.00;100424.44;5172852;27;20057;-54
2022/08/11 03:09:05;;;;;;;2.72;1.90;;;;;;;15.72;100.00;100435.66;5173049;27;20424;-56
2022/08/11 03:17:36;;;;;;;2.60;1.60;;;;;;;15.81;100.00;100426.34;5173067;27;20080;-54
2022/08/11 03:20:27;;;;;;;5.47;1.30;;;;;;;16.26;100.00;100444.84;5172884;27;20046;-55
2022/08/11 03:23:07;;;;;;;2.70;1.45;;;;;;;16.99;100.00;100455.75;5172725;27;20053;-57
2022/08/11 03:25:45;;;;;;;3.38;1.35;;;;;;;17.61;100.00;100397.81;5172790;27;20057;-54
2022/08/11 03:28:33;;;;;;;2.95;1.60;;;;;;;17.54;100.00;100276.56;5172803;27;20090;-56
2022/08/11 03:31:23;;;;;;;3.65;1.48;;;;;;;18.36;100.00;100109.69;5172342;27;20042;-54
2022/08/11 03:34:03;;;;;;;1.55;1.45;;;;;;;18.75;100.00;99989.50;5172894;27;20046;-53
2022/08/11 03:37:47;;;;;;;2.83;1.30;;;;;;;19.07;100.00;99761.53;5172572;27;20046;-54
2022/08/11 03:40:15;;;;;;;2.30;1.75;;;;;;;19.67;100.00;99551.66;5171466;27;20070;-54
2022/08/11 03:42:48;;;;;;;5.47;1.52;;;;;;;19.70;100.00;99477.72;5172556;27;20070;-55
2022/08/11 03:45:24;;;;;;;1.98;1.42;;;;;;;19.93;100.00;99393.53;5172417;27;20046;-55
2022/08/11 03:48:07;;;;;;;2.00;1.27;;;;;;;19.95;100.00;99352.91;5172465;27;20057;-55
2022/08/11 03:50:52;;;;;;;2.53;1.55;;;;;;;20.32;100.00;99273.13;5172189;27;20061;-55
2022/08/11 03:53:31;;;;;;;1.15;1.15;;;;;;;20.74;100.00;99269.91;5172234;27;20053;-55
2022/08/11 03:56:35;;;;;;;2.38;1.10;;;;;;;20.99;100.00;99086.19;5172146;27;20046;-57
2022/08/11 03:59:30;;;;;;;4.22;1.23;;;;;;;20.78;100.00;99100.66;5172212;27;20094;-57
2022/08/11 04:02:27;;;;;;;2.97;1.50;;;;;;;21.49;100.00;99068.19;5172029;27;20043;-56
2022/08/11 04:05:34;;;;;;;3.90;1.48;;;;;;;21.61;100.00;99010.84;5172251;27;20051;-56
2022/08/11 04:08:27;;;;;;;1.30;1.20;;;;;;;21.43;100.00;99018.97;5120622;27;20050;-56
2022/08/11 04:11:37;;;;;;;1.60;1.10;;;;;;;21.11;100.00;99026.16;5171974;27;20054;-57
2022/08/11 04:17:52;;;;;;;1.40;1.27;;;;;;;22.38;100.00;98960.63;5171981;27;20092;-57
2022/08/11 04:20:42;;;;;;;1.90;1.13;;;;;;;22.68;100.00;98957.19;5162228;27;20050;-56
2022/08/11 04:24:03;;;;;;;1.20;1.10;;;;;;;22.32;100.00;98957.59;5171828;27;20046;-55
2022/08/11 04:27:00;;;;;;;1.33;1.23;;;;;;;22.07;100.00;98961.97;5087264;28;20052;-57
2022/08/11 04:29:44;;;;;;;1.30;1.20;;;;;;;21.71;100.00;98956.72;5084697;28;20048;-56
2022/08/11 04:32:30;;;;;;;5.00;1.50;;;;;;;22.34;100.00;98949.56;5154003;27;20504;-53
2022/08/11 04:35:15;;;;;;;1.20;1.10;;;;;;;22.30;100.00;98952.47;5171785;27;20501;-56
2022/08/11 04:38:12;;;;;;;4.20;1.80;;;;;;;22.67;100.00;98950.03;5171999;27;20053;-57
2022/08/11 04:41:15;;;;;;;1.13;1.02;;;;;;;23.09;100.00;98955.38;5135352;27;20092;-57
2022/08/11 04:44:20;;;;;;;4.80;0.90;;;;;;;23.14;100.00;98973.59;5171864;27;20046;-55
2022/08/11 04:47:10;;;;;;;2.53;1.30;;;;;;;23.83;100.00;99009.00;5171516;27;20050;-57
2022/08/11 05:03:02;;;;;;;5.50;1.50;;;;;;;24.63;100.00;99076.25;5090444;28;20084;-56
2022/08/11 05:05:45;;;;;;;3.05;2.20;;;;;;;24.99;100.00;99094.41;5086734;28;20051;-56
2022/08/11 05:08:53;;;;;;;2.30;1.77;;;;;;;24.80;100.00;99110.41;5090169;28;20504;-56
2022/08/11 05:11:47;;;;;;;5.75;1.40;;;;;;;24.76;100.00;99104.16;5016946;28;20093;-56
2022/08/11 05:37:18;;;;;;;4.13;1.90;;;;;;;25.75;100.00;99174.13;5174483;27;20420;-60
2022/08/11 05:56:44;;;;;;;3.60;2.85;;;;;;;25.24;100.00;99233.63;5174070;27;20049;-61
2022/08/11 05:59:15;;;;;;;6.85;1.40;;;;;;;26.98;100.00;99285.44;5174229;27;20105;-55
2022/08/11 06:01:43;;;;;;;6.22;1.20;;;;;;;26.37;100.00;99284.63;5172800;27;20050;-60
2022/08/11 06:04:16;;;;;;;5.57;1.38;;;;;;;26.91;100.00;99297.03;5174149;27;20042;-62
2022/08/11 06:06:55;;;;;;;6.05;1.30;;;;;;;26.64;100.00;99328.81;5174030;27;20046;-62
2022/08/11 06:09:28;;;;;;;2.63;1.30;;;;;;;26.72;100.00;99294.28;5173889;27;20080;-56
2022/08/11 06:11:57;;;;;;;2.22;1.25;;;;;;;27.15;100.00;99342.94;5173675;27;20121;-56
2022/08/11 06:14:25;;;;;;;3.40;1.23;;;;;;;26.47;100.00;99300.22;5173731;27;20046;-57
2022/08/11 06:16:55;;;;;;;8.75;1.33;;;;;;;27.16;100.00;99322.00;5173818;27;20068;-57
2022/08/11 06:19:22;;;;;;;6.18;1.20;;;;;;;27.51;100.00;99382.69;5173586;27;20136;-57
2022/08/11 06:21:51;;;;;;;3.55;1.20;;;;;;;27.53;100.00;99394.25;5174073;27;20161;-59
2022/08/11 06:24:18;;;;;;;5.07;1.33;;;;;;;27.71;100.00;99356.78;5173410;27;20052;-56
2022/08/11 06:26:49;;;;;;;2.60;1.42;;;;;;;27.69;100.00;99382.59;5173670;27;20102;-56
2022/08/11 06:29:17;;;;;;;3.95;1.35;;;;;;;27.78;100.00;99348.75;5173553;27;20493;-58
2022/08/11 06:31:51;;;;;;;4.68;1.23;;;;;;;27.68;100.00;99401.53;5173308;27;20051;-57
2022/08/11 06:34:33;;;;;;;1.33;0.90;;;;;;;27.17;100.00;99393.91;5173665;27;20050;-57
2022/08/11 06:37:13;;;;;;;1.80;1.30;;;;;;;27.27;100.00;99417.16;5173344;27;20048;-55
2022/08/11 06:39:46;;;;;;;4.45;1.20;;;;;;;26.85;100.00;99363.63;5173220;27;20045;-56
2022/08/11 06:42:15;;;;;;;;;;;;;;;27.29;100.00;99388.53;5173414;27;20087;-62
2022/08/11 06:44:48;;;;;;;7.50;1.70;;;;;;;27.80;100.00;99390.56;5173140;27;20270;-61
2022/08/11 06:47:16;;;;;;;3.70;1.20;;;;;;;27.65;100.00;99435.50;5173252;27;20050;-62
2022/08/11 06:52:33;;;;;;;4.85;1.60;;;;;;;28.32;100.00;99431.41;5173457;27;20487;-59
2022/08/11 06:55:05;;;;;;;2.60;1.40;;;;;;;28.54;100.00;99428.28;5173254;27;20146;-59
2022/08/11 07:00:27;;;;;;;4.15;1.67;;;;;;;28.09;100.00;99463.97;5173020;27;20098;-60
2022/08/11 07:02:59;;;;;;;5.05;1.80;;;;;;;28.29;100.00;99451.31;5173028;27;20050;-60
2022/08/11 07:05:37;;;;;;;4.45;1.48;;;;;;;27.74;100.00;99454.41;5172881;27;20042;-60
2022/08/11 07:17:37;;;;;;;10.98;2.30;;;;;;;28.88;100.00;99462.81;5172919;27;20433;-58
2022/08/11 07:31:20;;;;;;;1.90;1.30;;;;;;;28.30;100.00;99481.09;5172431;27;20049;-59
2022/08/11 07:33:51;;;;;;;2.83;1.20;;;;;;;27.95;100.00;99506.91;5172554;27;20050;-57
2022/08/11 07:36:18;;;;;;;1.65;1.35;;;;;;;26.89;100.00;99440.16;5172199;27;20046;-58
2022/08/11 07:38:49;;;;;;;4.43;1.60;;;;;;;26.38;100.00;99449.97;5172331;27;20062;-58
2022/08/11 07:41:18;;;;;;;1.92;1.10;;;;;;;27.55;100.00;99429.09;5172399;27;20050;-58
2022/08/11 07:43:47;;;;;;;7.75;2.58;;;;;;;27.49;100.00;99419.78;5172319;27;20048;-58
2022/08/11 07:54:34;;;;;;;3.22;1.02;;;;;;;28.49;100.00;99512.78;5172218;27;20068;-58
2022/08/11 08:19:14;;;;;;;6.00;1.60;;;;;;;29.21;100.00;99538.91;5172043;27;20145;-58
2022/08/11 08:21:43;;;;;;;3.83;1.60;;;;;;;29.40;100.00;99519.75;5171969;27;20485;-58
2022/08/11 08:24:11;;;;;;;3.28;1.00;;;;;;;27.83;100.00;99480.53;5171784;27;20516;-60
2022/08/11 08:32:10;;;;;;;13.93;2.30;;;;;;;28.21;100.00;99447.31;5175377;27;20057;-58
2022/08/11 08:34:37;;;;;;;8.38;1.80;;;;;;;27.97;100.00;99493.16;5175264;27;20056;-58
2022/08/11 08:37:06;;;;;;;7.25;1.63;;;;;;;28.19;100.00;99469.53;5175205;27;20046;-58
2022/08/11 08:39:36;;;;;;;2.35;1.30;;;;;;;27.01;100.00;99478.63;5175450;27;20134;-59
2022/08/11 08:42:09;;;;;;;2.13;1.40;;;;;;;27.91;100.00;99507.09;5175166;27;20054;-60
2022/08/11 08:44:41;;;;;;;2.88;1.50;;;;;;;28.38;100.00;99491.50;5175356;27;20047;-58
2022/08/11 08:47:12;;;;;;;3.17;1.40;;;;;;;27.14;100.00;99470.03;5175424;27;20046;-58
2022/08/11 08:49:48;;;;;;;1.42;1.30;;;;;;;25.65;100.00;99408.41;5175256;27;20133;-58
2022/08/11 08:52:19;;;;;;;3.38;1.70;;;;;;;25.90;100.00;99401.81;5174955;27;20050;-58
2022/08/11 08:54:52;;;;;;;5.63;1.45;;;;;;;27.18;100.00;99442.50;5175254;27;20129;-58
2022/08/11 08:57:21;;;;;;;3.22;1.55;;;;;;;26.35;100.00;99427.66;5174954;27;20042;-59
2022/08/11 08:59:49;;;;;;;3.92;1.63;;;;;;;26.75;100.00;99419.09;5174942;27;20077;-58
2022/08/11 09:02:19;;;;;;;4.90;2.05;;;;;;;27.56;100.00;99436.31;5174837;27;20136;-57
2022/08/11 09:04:47;;;;;;;5.50;1.35;;;;;;;28.01;100.00;99448.66;5174858;27;20054;-59
2022/08/11 09:07:16;;;;;;;16.02;1.73;;;;;;;28.38;100.00;99468.16;5174972;27;20057;-59
2022/08/11 09:09:46;;;;;;;2.08;1.50;;;;;;;28.10;100.00;99519.06;5174635;27;20060;-59
2022/08/11 09:12:15;;;;;;;8.25;2.08;;;;;;;27.94;100.00;99485.63;5174950;27;20097;-60
2022/08/11 09:15:02;;;;;;;6.72;1.33;;;;;;;27.67;100.00;99490.09;5175052;27;20096;-59
2022/08/11 09:17:34;;;;;;;4.72;1.33;;;;;;;27.39;100.00;99494.22;5174761;27;20443;-59
2022/08/11 09:20:04;;;;;;;4.17;1.57;;;;;;;28.04;100.00;99477.94;5174706;27;20097;-58
2022/08/11 09:28:06;;;;;;;4.88;1.73;;;;;;;27.88;100.00;99488.31;5174741;27;20071;-57
2022/08/11 09:30:33;;;;;;;1.55;1.40;;;;;;;27.41;100.00;99498.13;5174713;27;20203;-58
2022/08/11 09:33:06;;;;;;;3.50;1.90;;;;;;;27.40;100.00;99464.84;5174485;27;20067;-56
2022/08/11 09:35:33;;;;;;;;;;;;;;;27.52;100.00;99491.22;5174776;27;20142;-57
2022/08/11 09:40:52;;;;;;;5.22;1.40;;;;;;;28.29;100.00;99504.88;5174209;27;20136;-58
2022/08/11 09:46:06;;;;;;;1.60;1.30;;;;;;;28.24;100.00;99497.09;5174304;27;20099;-58
2022/08/11 09:48:38;;;;;;;3.10;1.60;;;;;;;28.95;100.00;99496.28;5174379;27;20046;-59
2022/08/11 09:51:06;;;;;;;3.95;1.63;;;;;;;29.03;100.00;99500.34;5174066;27;20054;-59
2022/08/11 09:53:37;;;;;;;3.20;1.30;;;;;;;28.70;100.00;99500.41;5174286;27;20060;-58
2022/08/11 09:58:55;;;;;;;2.10;1.20;;;;;;;29.13;100.00;99503.09;5174162;27;20079;-57
2022/08/11 10:01:26;;;;;;;8.00;1.55;;;;;;;28.95;100.00;99507.56;5173963;27;20061;-58
2022/08/11 10:03:58;;;;;;;2.13;1.63;;;;;;;28.36;100.00;99477.13;5173958;27;20054;-59
2022/08/11 10:09:12;;;;;;;6.72;1.73;;;;;;;28.48;100.00;99455.59;5173928;27;20107;-58
2022/08/11 10:11:40;;;;;;;4.07;1.83;;;;;;;28.27;100.00;99471.53;5173984;27;20084;-58
2022/08/11 10:16:53;;;;;;;3.05;1.30;;;;;;;27.12;100.00;99461.25;5173701;27;20048;-58
2022/08/11 10:19:21;;;;;;;2.20;1.33;;;;;;;27.01;100.00;99422.34;5174031;27;20088;-58
2022/08/11 10:26:49;;;;;;;1.40;1.30;;;;;;;27.79;100.00;99437.66;5173945;27;20216;-59
2022/08/11 10:27:26;;;;;;;3.80;1.52;;;;;;;27.67;100.00;99476.00;5173448;27;20539;-58
2022/08/11 10:35:25;;;;;;;4.20;1.85;;;;;;;26.49;100.00;99399.75;5173375;27;20045;-59
2022/08/11 10:37:52;;;;;;;5.55;1.85;;;;;;;26.57;100.00;99438.78;5173694;27;20046;-58
2022/08/11 10:40:21;;;;;;;4.45;1.67;;;;;;;26.72;100.00;99428.47;5173369;27;20137;-58
2022/08/11 10:43:01;;;;;;;3.50;1.90;;;;;;;26.50;100.00;99434.25;5173743;27;20046;-58
2022/08/11 10:48:37;;;;;;;6.47;2.10;;;;;;;26.13;100.00;99349.13;5172975;27;20041;-57
2022/08/11 10:51:14;;;;;;;7.88;2.58;;;;;;;26.33;100.00;99341.00;5173502;27;20088;-57
2022/08/11 10:59:16;;;;;;;10.57;1.85;;;;;;;26.26;100.00;99325.22;5172995;27;20470;-57
2022/08/11 11:01:46;;;;;;;4.22;2.08;;;;;;;26.63;100.00;99346.94;5172969;27;20198;-59
2022/08/11 11:04:16;;;;;;;8.82;1.70;;;;;;;26.28;100.00;99383.75;5173350;27;20100;-58
2022/08/11 11:06:51;;;;;;;2.50;1.52;;;;;;;25.77;100.00;99365.38;5172903;27;20113;-57
2022/08/11 11:09:23;;;;;;;3.65;1.58;;;;;;;25.57;100.00;99336.94;5173211;27;20413;-57
2022/08/11 11:18:00;;;;;;;4.78;1.75;;;;;;;25.75;100.00;99347.44;5173252;27;20463;-56
2022/08/11 11:20:30;;;;;;;1.88;1.20;;;;;;;25.11;100.00;99306.69;5173002;27;20564;-57
2022/08/11 11:23:08;;;;;;;4.07;1.80;;;;;;;25.52;100.00;99312.28;5172754;27;20421;-58
2022/08/11 11:26:11;;;;;;;4.18;1.30;;;;;;;25.46;100.00;99286.06;5172713;27;20049;-57
2022/08/11 11:29:01;;;;;;;4.45;1.52;;;;;;;25.81;100.00;99286.63;5172474;27;20050;-57
2022/08/11 11:31:41;;;;;;;7.97;1.70;;;;;;;25.54;100.00;99307.78;5172772;27;20050;-57
2022/08/11 11:34:35;;;;;;;6.53;1.80;;;;;;;25.35;100.00;99337.78;5172268;27;20049;-57
2022/08/11 11:37:02;;;;;;;5.53;2.33;;;;;;;25.25;100.00;99313.75;5172729;27;20050;-56
2022/08/11 11:39:31;;;;;;;2.67;1.30;;;;;;;24.70;100.00;99333.09;5172401;27;20050;-57
2022/08/11 11:42:03;;;;;;;4.57;1.25;;;;;;;24.65;100.00;99353.28;5172459;27;20524;-58
2022/08/11 11:44:35;;;;;;;2.67;1.50;;;;;;;24.74;100.00;99291.66;5172064;27;20050;-60
2022/08/11 11:47:02;;;;;;;2.55;1.35;;;;;;;24.83;100.00;99280.50;5172630;27;20042;-55
2022/08/11 11:49:31;;;;;;;4.10;1.73;;;;;;;25.65;100.00;99298.13;5172578;27;20050;-57
2022/08/11 11:51:59;;;;;;;3.25;1.70;;;;;;;26.09;100.00;99281.03;5172105;27;20081;-58
2022/08/11 11:54:28;;;;;;;7.60;1.80;;;;;;;25.81;100.00;99337.97;5172156;27;20042;-61
2022/08/11 11:56:56;;;;;;;8.00;1.80;;;;;;;25.34;100.00;99369.91;5172059;27;20050;-57
2022/08/11 12:02:15;;;;;;;1.55;1.45;;;;;;;25.15;100.00;99278.50;5172285;27;20045;-59
2022/08/11 12:04:43;;;;;;;1.65;1.55;;;;;;;25.09;100.00;99253.06;5172041;27;20074;-57
2022/08/11 12:09:57;;;;;;;3.28;1.40;;;;;;;25.17;100.00;99278.03;5172155;27;20046;-58
2022/08/11 12:15:09;;;;;;;2.55;1.55;;;;;;;25.25;100.00;99324.97;5171977;27;20083;-60
2022/08/11 12:17:37;;;;;;;2.63;1.40;;;;;;;24.97;100.00;99281.19;5172003;27;20133;-60
2022/08/11 12:20:07;;;;;;;2.05;1.60;;;;;;;25.20;100.00;99280.69;5171710;27;20579;-60
2022/08/11 12:28:04;;;;;;;4.75;1.80;;;;;;;25.45;100.00;99324.56;5171629;27;20091;-60
2022/08/11 12:30:30;;;;;;;1.55;1.42;;;;;;;25.12;100.00;99318.69;5171942;27;20500;-59
2022/08/11 12:32:58;;;;;;;3.20;1.60;;;;;;;24.87;100.00;99286.75;5171669;27;20053;-60
2022/08/11 12:35:25;;;;;;;6.38;1.90;;;;;;;24.91;100.00;99277.44;5171738;27;20050;-59
2022/08/11 12:37:57;;;;;;;9.35;1.92;;;;;;;25.37;100.00;99255.19;5171470;27;20075;-59
2022/08/11 12:46:01;;;;;;;3.58;1.40;;;;;;;25.33;100.00;99308.66;5171438;27;20091;-59
2022/08/11 12:54:14;;;;;;;2.90;1.70;;;;;;;24.79;100.00;99284.69;5171165;27;20053;-60
2022/08/11 13:05:03;;;;;;;1.33;1.05;;;;;;;25.15;100.00;99269.28;5171373;27;20126;-55
2022/08/11 13:07:32;;;;;;;1.77;1.33;;;;;;;25.23;100.00;99295.84;5171001;27;20544;-52
2022/08/11 13:10:00;;;;;;;7.95;1.30;;;;;;;25.29;100.00;99289.16;5171495;27;20923;-56
2022/08/11 13:12:49;;;;;;;8.63;1.50;;;;;;;25.22;100.00;99297.06;5174305;27;20058;-56
2022/08/11 13:15:18;;;;;;;4.78;1.70;;;;;;;25.54;100.00;99273.31;5174692;27;20100;-59
2022/08/11 13:18:36;;;;;;;4.43;1.50;;;;;;;25.67;100.00;99316.06;5175056;27;20049;-54
2022/08/11 13:21:04;;;;;;;3.17;1.35;;;;;;;24.96;100.00;99327.28;5174596;27;20061;-55
2022/08/11 13:23:31;;;;;;;2.75;1.40;;;;;;;25.18;100.00;99322.44;5174700;27;20088;-55
2022/08/11 13:25:57;;;;;;;1.88;1.35;;;;;;;25.07;100.00;99316.47;5174692;27;20556;-57
2022/08/11 13:28:24;;;;;;;4.50;1.33;;;;;;;25.17;100.00;99318.09;5174796;27;20053;-53
2022/08/11 13:33:40;;;;;;;2.50;1.40;;;;;;;25.04;100.00;99281.69;5174545;27;20049;-53
2022/08/11 13:36:09;;;;;;;6.28;1.33;;;;;;;24.82;100.00;99309.78;5174603;27;20042;-57
2022/08/11 13:38:36;;;;;;;6.65;1.48;;;;;;;24.65;100.00;99283.97;5174345;27;20053;-61
2022/08/11 13:41:36;;;;;;;1.92;1.58;;;;;;;24.86;100.00;99304.06;5174173;27;20520;-59
2022/08/11 13:43:53;;;;;;;2.70;1.55;;;;;;;24.83;100.00;99283.31;5173878;27;20554;-57
2022/08/11 13:46:23;;;;;;;1.50;1.40;;;;;;;24.88;100.00;99282.69;5174536;27;20549;-56
2022/08/11 13:48:51;;;;;;;1.98;1.27;;;;;;;24.80;100.00;99261.81;5173598;27;20544;-57
2022/08/11 13:51:33;;;;;;;2.95;1.48;;;;;;;24.77;100.00;99256.34;5173863;27;20054;-58
2022/08/11 13:54:01;;;;;;;5.25;1.40;;;;;;;24.97;100.00;99202.69;5173504;27;20053;-59
2022/08/11 13:56:28;;;;;;;5.07;1.50;;;;;;;24.97;100.00;99239.91;5173220;27;20137;-56
2022/08/11 13:58:56;;;;;;;4.22;1.55;;;;;;;25.06;100.00;99230.75;5174020;27;20046;-56
2022/08/11 14:01:26;;;;;;;4.38;1.55;;;;;;;25.15;100.00;99233.59;5173993;27;20489;-57
2022/08/11 14:03:53;;;;;;;3.65;1.60;;;;;;;25.45;100.00;99234.00;5174522;27;20494;-59
2022/08/11 14:06:21;;;;;;;5.07;1.63;;;;;;;25.18;100.00;99248.75;5174198;27;20077;-62
2022/08/11 14:08:53;;;;;;;5.65;1.67;;;;;;;24.71;100.00;99244.94;5174119;27;20081;-60
2022/08/11 14:14:06;;;;;;;4.05;1.20;;;;;;;24.40;100.00;99245.69;5173973;27;20182;-61
2022/08/11 14:16:41;;;;;;;1.30;1.20;;;;;;;24.71;100.00;99233.72;5173848;27;20060;-62
2022/08/11 14:19:13;;;;;;;2.47;1.23;;;;;;;24.54;100.00;99223.97;5174047;27;20069;-59
2022/08/11 14:24:27;;;;;;;4.55;1.65;;;;;;;24.70;100.00;99248.22;5172220;27;20180;-58
2022/08/11 14:26:54;;;;;;;3.25;1.23;;;;;;;24.60;100.00;99222.94;5173839;27;20099;-57
2022/08/11 14:29:22;;;;;;;3.85;1.02;;;;;;;24.77;100.00;99215.06;5173436;27;20057;-56
2022/08/11 14:31:52;;;;;;;4.93;1.33;;;;;;;24.62;100.00;99216.84;5173729;27;20054;-56
2022/08/11 14:34:20;;;;;;;3.17;1.17;;;;;;;24.62;100.00;99209.25;5173683;27;20137;-55
2022/08/11 14:36:51;;;;;;;3.85;1.48;;;;;;;24.38;100.00;99194.91;5173586;27;20160;-58
2022/08/11 14:39:20;;;;;;;3.50;1.48;;;;;;;24.69;100.00;99198.97;5173252;27;20150;-56
2022/08/11 14:47:21;;;;;;;7.25;1.50;;;;;;;24.46;100.00;99214.25;5173320;27;20585;-56
2022/08/11 14:49:50;;;;;;;4.05;1.50;;;;;;;24.29;100.00;99200.47;5173381;27;20132;-56
2022/08/11 14:52:19;;;;;;;1.60;0.90;;;;;;;24.25;100.00;99204.63;5173074;27;20140;-56
2022/08/11 14:57:35;;;;;;;5.47;1.73;;;;;;;24.20;100.00;99206.00;5173276;27;20547;-57
2022/08/11 15:00:04;;;;;;;2.20;1.20;;;;;;;24.35;100.00;99217.44;5173076;27;20050;-57
2022/08/11 15:05:16;;;;;;;1.35;1.02;;;;;;;24.17;100.00;99188.09;5172846;27;20186;-56
2022/08/11 15:07:45;;;;;;;2.25;1.17;;;;;;;24.48;100.00;99197.78;5172957;27;20042;-57
2022/08/11 15:10:12;;;;;;;1.10;1.10;;;;;;;24.47;100.00;99208.22;5173303;27;20049;-57
2022/08/11 15:12:40;;;;;;;3.05;1.40;;;;;;;24.17;100.00;99188.09;5173211;27;20098;-57
2022/08/11 15:17:55;;;;;;;1.27;1.17;;;;;;;24.29;100.00;99163.25;5172909;27;20106;-57
2022/08/11 15:25:59;;;;;;;5.00;1.20;;;;;;;24.33;100.00;99178.69;5172995;27;20053;-56
2022/08/11 15:45:46;;;;;;;2.08;1.60;;;;;;;24.47;100.00;99146.56;5172867;27;20138;-58
2022/08/11 15:48:06;;;;;;;2.95;1.70;;;;;;;24.18;100.00;99110.44;5172427;27;20049;-57
2022/08/11 15:50:37;;;;;;;3.63;1.40;;;;;;;24.16;100.00;99122.13;5172156;27;20129;-56
2022/08/11 15:53:11;;;;;;;2.65;1.20;;;;;;;23.82;100.00;99105.41;5172809;27;20043;-56
2022/08/11 15:55:39;;;;;;;2.97;1.05;;;;;;;24.00;100.00;99087.94;5172245;27;20111;-58
2022/08/11 16:04:14;;;;;;;3.58;1.30;;;;;;;24.01;100.00;99048.28;5165367;27;20486;-56
2022/08/11 16:06:44;;;;;;;4.53;1.38;;;;;;;24.02;100.00;99071.47;5171972;27;20515;-56
2022/08/11 16:09:13;;;;;;;2.92;1.33;;;;;;;23.99;100.00;99053.53;5172385;27;20160;-58
2022/08/11 16:11:42;;;;;;;4.35;1.30;;;;;;;23.95;100.00;99034.09;5171716;27;20046;-58
2022/08/11 16:16:57;;;;;;;10.15;1.20;;;;;;;24.13;100.00;99074.66;5172138;27;20045;-57
2022/08/11 16:19:26;;;;;;;2.15;1.10;;;;;;;23.98;100.00;99051.22;5171957;27;20042;-57
2022/08/11 16:21:54;;;;;;;1.73;1.40;;;;;;;23.80;100.00;99085.50;5171748;27;20085;-58
2022/08/11 16:24:23;;;;;;;2.25;1.52;;;;;;;23.75;100.00;99078.47;5172104;27;20057;-56
2022/08/11 16:26:54;;;;;;;1.20;1.02;;;;;;;23.60;100.00;99029.84;5172021;27;20046;-57
2022/08/11 16:29:22;;;;;;;2.80;1.40;;;;;;;23.85;100.00;99068.09;5171847;27;20057;-58